Time;durP1;ratioP1;P1;durP2;ratioP2;P2;SDS_P1;SDS_P2;PMS_P1;PMS_P2;Temp;Humidity;BMP_temperature;BMP_pressure;BME280_temperature;BME280_humidity;BME280_pressure;Samples;Min_cycle;Max_cycle;Signal;HPM_P1;HPM_P2
2023/11/25 00:00:49;;;;;;;2.40;1.08;;;3.30;91.10;;;;;;5006587;28;20237;-62
2023/11/25 00:03:15;;;;;;;2.65;1.08;;;3.30;91.10;;;;;;5007147;28;20038;-62
2023/11/25 00:05:41;;;;;;;2.13;0.95;;;3.20;91.00;;;;;;5007084;28;20568;-63
2023/11/25 00:08:07;;;;;;;3.53;0.88;;;3.30;91.00;;;;;;5006684;28;20501;-62
2023/11/25 00:10:33;;;;;;;1.38;0.60;;;3.30;90.90;;;;;;5004813;28;20046;-63
2023/11/25 00:12:59;;;;;;;3.53;0.80;;;3.30;90.70;;;;;;5006546;28;20030;-62
2023/11/25 00:15:25;;;;;;;3.20;0.90;;;3.40;90.70;;;;;;5007070;28;20049;-63
2023/11/25 00:17:52;;;;;;;2.08;0.60;;;3.30;90.60;;;;;;5006390;28;20053;-63
2023/11/25 00:20:18;;;;;;;1.05;0.60;;;3.40;90.60;;;;;;5005926;28;20034;-62
2023/11/25 00:22:44;;;;;;;3.35;1.00;;;3.40;90.50;;;;;;5006596;28;20044;-62
2023/11/25 00:25:10;;;;;;;1.83;0.90;;;3.50;90.50;;;;;;5006620;28;20041;-63
2023/11/25 00:27:36;;;;;;;2.53;0.70;;;3.50;90.40;;;;;;5006927;28;20513;-62
2023/11/25 00:30:04;;;;;;;4.45;1.10;;;3.50;90.20;;;;;;5006687;28;20065;-63
2023/11/25 00:32:30;;;;;;;5.30;1.23;;;3.50;90.50;;;;;;5005970;28;20030;-63
2023/11/25 00:34:55;;;;;;;4.60;1.27;;;3.40;90.50;;;;;;5006572;28;20068;-63
2023/11/25 00:37:21;;;;;;;4.93;1.33;;;3.40;90.70;;;;;;5006246;28;20080;-63
2023/11/25 00:39:47;;;;;;;4.03;1.00;;;3.40;91.20;;;;;;5006390;28;20069;-63
2023/11/25 00:42:14;;;;;;;2.90;0.90;;;3.40;90.80;;;;;;5006611;28;20537;-63
2023/11/25 00:44:39;;;;;;;4.40;1.05;;;3.30;90.80;;;;;;5005576;28;20033;-63
2023/11/25 00:47:11;;;;;;;5.53;1.25;;;3.30;90.90;;;;;;5006645;28;20090;-63
2023/11/25 00:49:38;;;;;;;5.25;1.33;;;3.30;90.90;;;;;;5005925;28;20467;-63
2023/11/25 00:52:05;;;;;;;3.00;0.80;;;3.30;91.00;;;;;;5006002;28;20034;-63
2023/11/25 00:54:31;;;;;;;3.42;0.80;;;3.20;91.10;;;;;;5005802;28;20483;-63
2023/11/25 00:56:57;;;;;;;3.92;1.17;;;3.20;91.20;;;;;;5006567;28;20025;-64
2023/11/25 00:59:23;;;;;;;3.72;1.10;;;3.20;91.20;;;;;;5005867;28;20433;-63
2023/11/25 01:01:49;;;;;;;4.28;0.90;;;3.10;91.30;;;;;;5005729;28;20034;-64
2023/11/25 01:04:15;;;;;;;2.10;0.70;;;3.10;91.50;;;;;;5005915;28;20671;-63
2023/11/25 01:06:46;;;;;;;2.25;0.90;;;3.10;91.50;;;;;;5005173;28;20041;-63
2023/11/25 01:09:12;;;;;;;1.85;0.90;;;3.00;91.70;;;;;;5005535;28;20294;-62
2023/11/25 01:11:39;;;;;;;3.92;1.02;;;3.00;91.80;;;;;;5004056;28;20126;-63
2023/11/25 01:14:05;;;;;;;2.22;0.80;;;3.00;92.00;;;;;;5005633;28;20030;-64
2023/11/25 01:16:31;;;;;;;1.88;1.00;;;3.00;91.90;;;;;;5005469;28;20030;-63
2023/11/25 01:18:56;;;;;;;3.42;1.20;;;3.00;91.90;;;;;;5004961;28;20172;-64
2023/11/25 01:21:22;;;;;;;3.90;1.25;;;3.00;91.90;;;;;;5006583;28;20034;-63
2023/11/25 01:23:47;;;;;;;4.22;1.50;;;3.00;91.80;;;;;;5006257;28;20317;-63
2023/11/25 01:26:13;;;;;;;4.20;0.90;;;3.00;91.80;;;;;;5005269;28;20034;-64
2023/11/25 01:28:42;;;;;;;2.83;0.90;;;3.00;91.80;;;;;;5005138;28;20084;-63
2023/11/25 01:31:10;;;;;;;2.20;1.13;;;3.10;91.80;;;;;;5005823;28;20056;-64
2023/11/25 01:33:40;;;;;;;3.83;0.90;;;3.10;91.60;;;;;;5006073;28;20103;-64
2023/11/25 01:36:09;;;;;;;1.50;0.60;;;3.10;91.50;;;;;;5005662;28;20044;-63
2023/11/25 01:38:35;;;;;;;5.15;0.80;;;3.10;91.50;;;;;;5004981;28;20037;-64
2023/11/25 01:41:01;;;;;;;1.95;0.82;;;3.10;91.30;;;;;;5005625;28;20528;-61
2023/11/25 01:43:27;;;;;;;4.10;0.98;;;3.10;91.20;;;;;;5005539;28;20302;-63
2023/11/25 01:45:56;;;;;;;2.08;0.60;;;3.10;91.20;;;;;;5005507;28;20038;-63
2023/11/25 01:48:22;;;;;;;2.35;0.57;;;3.20;91.10;;;;;;5005521;28;20045;-63
2023/11/25 01:50:48;;;;;;;3.25;0.50;;;3.10;90.90;;;;;;5005313;28;20033;-63
2023/11/25 01:53:17;;;;;;;2.45;0.50;;;3.10;91.00;;;;;;5005516;28;20044;-63
2023/11/25 01:55:43;;;;;;;2.67;0.65;;;3.10;91.00;;;;;;5005791;28;20030;-63
2023/11/25 01:58:09;;;;;;;3.13;0.55;;;3.10;91.00;;;;;;5005093;28;20494;-62
2023/11/25 02:00:38;;;;;;;3.63;0.60;;;3.10;91.00;;;;;;5006390;28;20037;-63
2023/11/25 02:03:05;;;;;;;2.88;0.50;;;3.10;91.10;;;;;;4991844;28;20034;-63
2023/11/25 02:05:31;;;;;;;1.70;0.57;;;3.10;91.60;;;;;;5005424;28;20108;-63
2023/11/25 02:07:57;;;;;;;1.58;0.38;;;3.10;91.30;;;;;;5004575;28;20030;-63
2023/11/25 02:10:23;;;;;;;2.47;0.70;;;3.00;91.40;;;;;;5005384;28;20052;-62
2023/11/25 02:12:50;;;;;;;1.58;0.43;;;3.00;91.50;;;;;;5003597;28;20038;-64
2023/11/25 02:15:16;;;;;;;1.92;0.30;;;2.90;92.00;;;;;;5005311;28;20460;-63
2023/11/25 02:17:42;;;;;;;0.43;0.30;;;2.90;91.80;;;;;;5005531;28;20034;-64
2023/11/25 02:20:10;;;;;;;1.40;0.40;;;2.90;91.90;;;;;;5005424;28;20034;-64
2023/11/25 02:22:36;;;;;;;0.82;0.40;;;2.90;92.00;;;;;;5004829;28;20041;-64
2023/11/25 02:25:03;;;;;;;1.30;0.55;;;2.80;92.10;;;;;;5004802;28;20038;-64
2023/11/25 02:27:29;;;;;;;1.10;0.40;;;2.80;92.10;;;;;;4995367;28;20041;-64
2023/11/25 02:29:55;;;;;;;2.53;0.73;;;2.70;92.20;;;;;;5004725;28;20046;-64
2023/11/25 02:32:21;;;;;;;1.05;0.60;;;2.70;92.20;;;;;;5004906;28;20436;-64
2023/11/25 02:34:46;;;;;;;1.80;0.60;;;2.70;92.20;;;;;;5004670;28;20042;-65
2023/11/25 02:37:15;;;;;;;1.67;0.55;;;2.60;92.10;;;;;;5005599;28;20038;-65
2023/11/25 02:39:41;;;;;;;1.85;0.60;;;2.60;92.10;;;;;;5008551;28;20413;-64
2023/11/25 02:42:09;;;;;;;1.13;0.60;;;2.60;92.00;;;;;;5008351;28;20038;-64
2023/11/25 02:44:35;;;;;;;2.30;0.77;;;2.60;91.80;;;;;;5007368;28;20079;-64
2023/11/25 02:47:02;;;;;;;1.23;0.45;;;2.60;91.70;;;;;;5007700;28;20121;-65
2023/11/25 02:49:27;;;;;;;1.77;0.65;;;2.60;91.30;;;;;;5007082;28;20038;-65
2023/11/25 02:51:56;;;;;;;2.13;0.50;;;2.60;91.10;;;;;;4990346;28;20030;-64
2023/11/25 02:54:22;;;;;;;3.78;0.50;;;2.60;90.80;;;;;;5008063;28;20297;-65
2023/11/25 02:56:49;;;;;;;1.00;0.55;;;2.60;90.00;;;;;;5008404;28;20026;-65
2023/11/25 02:59:17;;;;;;;3.10;0.60;;;2.60;89.50;;;;;;5008337;28;20029;-64
2023/11/25 03:01:48;;;;;;;3.45;0.70;;;2.60;89.10;;;;;;5008099;28;20069;-64
2023/11/25 03:04:20;;;;;;;1.13;0.57;;;2.60;88.70;;;;;;5008972;28;20115;-64
2023/11/25 03:06:51;;;;;;;2.28;0.70;;;2.60;87.70;;;;;;5007894;28;20029;-64
2023/11/25 03:09:17;;;;;;;4.90;0.70;;;2.60;87.50;;;;;;5007632;28;20108;-64
2023/11/25 03:11:43;;;;;;;2.28;0.50;;;2.60;86.50;;;;;;5007215;28;20041;-64
2023/11/25 03:14:08;;;;;;;0.98;0.40;;;2.60;87.10;;;;;;5006766;28;20088;-64
2023/11/25 03:16:35;;;;;;;3.38;0.50;;;2.70;86.30;;;;;;5006485;28;20449;-64
2023/11/25 03:19:00;;;;;;;2.70;0.68;;;2.60;87.30;;;;;;5006498;28;20116;-65
2023/11/25 03:21:26;;;;;;;1.98;0.43;;;2.60;86.20;;;;;;5006513;28;20117;-65
2023/11/25 03:23:52;;;;;;;1.63;0.60;;;2.60;86.50;;;;;;5007382;28;20034;-64
2023/11/25 03:26:18;;;;;;;0.93;0.43;;;2.60;86.60;;;;;;5006888;28;20030;-65
2023/11/25 03:28:44;;;;;;;3.55;0.80;;;2.70;86.50;;;;;;5006004;28;20874;-64
2023/11/25 03:31:10;;;;;;;4.90;0.70;;;2.70;86.50;;;;;;5006012;28;20053;-65
2023/11/25 03:33:36;;;;;;;2.53;0.80;;;2.70;86.60;;;;;;5007025;28;20041;-65
2023/11/25 03:36:03;;;;;;;1.98;0.68;;;2.70;86.10;;;;;;5007258;28;20556;-65
2023/11/25 03:38:29;;;;;;;3.67;0.80;;;2.70;85.80;;;;;;5005956;28;20052;-65
2023/11/25 03:40:55;;;;;;;2.20;0.70;;;2.70;85.90;;;;;;5006888;28;20040;-65
2023/11/25 03:43:21;;;;;;;2.40;0.68;;;2.70;85.80;;;;;;5007190;28;20117;-64
2023/11/25 03:45:50;;;;;;;4.63;0.63;;;2.70;86.00;;;;;;5007851;28;20412;-65
2023/11/25 03:48:16;;;;;;;0.90;0.45;;;2.70;85.70;;;;;;5006624;28;20084;-65
2023/11/25 03:50:42;;;;;;;1.83;0.77;;;2.70;85.40;;;;;;5005525;28;20034;-64
2023/11/25 03:53:08;;;;;;;1.05;0.60;;;2.60;85.20;;;;;;5006371;28;20104;-64
2023/11/25 03:55:34;;;;;;;2.58;0.80;;;2.60;85.40;;;;;;5006611;28;20493;-64
2023/11/25 03:58:01;;;;;;;2.08;0.60;;;2.60;85.40;;;;;;5007028;28;20490;-64
2023/11/25 04:00:27;;;;;;;4.88;0.90;;;2.60;85.40;;;;;;5006747;28;20315;-65
2023/11/25 04:02:53;;;;;;;1.42;0.47;;;2.60;85.20;;;;;;5006975;28;20217;-64
2023/11/25 04:05:19;;;;;;;3.25;0.70;;;2.60;85.10;;;;;;5007258;28;20040;-65
2023/11/25 04:07:45;;;;;;;2.78;0.60;;;2.60;84.00;;;;;;5007103;28;20038;-64
2023/11/25 04:10:12;;;;;;;3.53;0.65;;;2.60;83.90;;;;;;5006348;28;20459;-65
2023/11/25 04:12:48;;;;;;;4.28;0.63;;;2.60;83.70;;;;;;5004727;28;20568;-65
2023/11/25 04:15:19;;;;;;;2.50;0.77;;;2.60;82.90;;;;;;5007087;28;20037;-64
2023/11/25 04:17:45;;;;;;;3.15;0.60;;;2.50;82.60;;;;;;5006692;28;20524;-64
2023/11/25 04:20:14;;;;;;;2.72;0.60;;;2.50;82.70;;;;;;5006678;28;20042;-64
2023/11/25 04:22:41;;;;;;;2.10;0.60;;;2.50;83.00;;;;;;5006548;28;20548;-64
2023/11/25 04:25:08;;;;;;;1.60;0.57;;;2.50;82.80;;;;;;4988432;28;20095;-64
2023/11/25 04:27:33;;;;;;;2.40;0.90;;;2.50;82.90;;;;;;5006513;28;20449;-64
2023/11/25 04:29:59;;;;;;;3.30;0.80;;;2.50;83.20;;;;;;5006097;28;20042;-64
2023/11/25 04:32:25;;;;;;;2.80;0.80;;;2.50;82.80;;;;;;5006118;28;20026;-65
2023/11/25 04:34:50;;;;;;;2.05;0.70;;;2.50;82.70;;;;;;5006693;28;20050;-64
2023/11/25 04:37:16;;;;;;;2.45;0.63;;;2.50;82.80;;;;;;5006275;28;20121;-64
2023/11/25 04:39:42;;;;;;;6.88;1.05;;;2.50;83.00;;;;;;5006050;28;20389;-64
2023/11/25 04:42:08;;;;;;;2.20;0.85;;;2.50;83.50;;;;;;5006516;28;20125;-64
2023/11/25 04:44:34;;;;;;;4.78;1.20;;;2.50;83.90;;;;;;5005938;28;20053;-64
2023/11/25 04:47:00;;;;;;;3.70;0.60;;;2.60;83.90;;;;;;5006867;28;20041;-64
2023/11/25 04:49:25;;;;;;;2.70;1.00;;;2.60;84.00;;;;;;5005577;28;20301;-64
2023/11/25 04:51:51;;;;;;;3.42;1.00;;;2.60;83.70;;;;;;5006151;28;20114;-64
2023/11/25 04:54:16;;;;;;;4.05;1.30;;;2.60;83.50;;;;;;5005869;28;20041;-64
2023/11/25 04:56:42;;;;;;;3.17;0.60;;;2.60;83.60;;;;;;5005588;28;20026;-64
2023/11/25 04:59:07;;;;;;;2.38;0.80;;;2.60;83.70;;;;;;5005073;28;20642;-64
2023/11/25 05:01:33;;;;;;;2.97;0.60;;;2.60;83.60;;;;;;5005984;28;20030;-64
2023/11/25 05:03:58;;;;;;;1.73;0.90;;;2.60;83.60;;;;;;5005915;28;20033;-64
2023/11/25 05:06:24;;;;;;;1.15;0.65;;;2.60;83.50;;;;;;5005972;28;20124;-64
2023/11/25 05:08:50;;;;;;;4.88;1.50;;;2.70;83.70;;;;;;5005227;28;20049;-63
2023/11/25 05:11:15;;;;;;;6.60;1.27;;;2.70;83.60;;;;;;5004865;28;20036;-63
2023/11/25 05:13:41;;;;;;;6.05;1.83;;;2.60;82.90;;;;;;5005858;28;20045;-63
2023/11/25 05:16:07;;;;;;;8.65;2.42;;;2.70;82.00;;;;;;5005510;28;20032;-63
2023/11/25 05:18:33;;;;;;;8.27;2.05;;;2.70;82.50;;;;;;5005144;28;20041;-63
2023/11/25 05:20:58;;;;;;;9.65;1.73;;;2.60;82.80;;;;;;5006178;28;20617;-62
2023/11/25 05:23:25;;;;;;;10.88;2.50;;;2.60;82.80;;;;;;5006648;28;20432;-63
2023/11/25 05:25:51;;;;;;;10.90;2.97;;;2.70;82.60;;;;;;5005596;28;20069;-63
2023/11/25 05:28:17;;;;;;;13.30;2.85;;;2.70;82.60;;;;;;5005616;28;20061;-63
2023/11/25 05:30:42;;;;;;;10.82;2.30;;;2.60;82.40;;;;;;5004903;28;22597;-62
2023/11/25 05:33:08;;;;;;;8.98;2.20;;;2.60;82.50;;;;;;5005413;28;20247;-62
2023/11/25 05:35:34;;;;;;;7.45;1.67;;;2.60;82.50;;;;;;5005022;28;20068;-63
2023/11/25 05:37:59;;;;;;;6.43;2.00;;;2.60;82.50;;;;;;5004684;28;20033;-63
2023/11/25 05:40:29;;;;;;;7.13;2.30;;;2.60;82.30;;;;;;5005310;28;20057;-63
2023/11/25 05:42:57;;;;;;;9.25;2.45;;;2.60;82.20;;;;;;5005646;28;20045;-63
2023/11/25 05:45:30;;;;;;;7.22;1.50;;;2.50;81.90;;;;;;5005493;28;20475;-62
2023/11/25 05:47:57;;;;;;;6.80;1.98;;;2.50;81.90;;;;;;5005403;28;20473;-63
2023/11/25 05:50:23;;;;;;;5.50;2.13;;;2.50;82.20;;;;;;5005429;28;20034;-63
2023/11/25 05:52:50;;;;;;;5.75;1.88;;;2.50;82.10;;;;;;4980528;28;20037;-63
2023/11/25 05:55:16;;;;;;;11.13;2.53;;;2.50;82.00;;;;;;5005862;28;20049;-62
2023/11/25 05:57:44;;;;;;;15.05;2.80;;;2.50;82.20;;;;;;5005583;28;20489;-63
2023/11/25 06:00:12;;;;;;;6.68;2.17;;;2.50;82.00;;;;;;5005255;28;20468;-62
2023/11/25 06:02:38;;;;;;;8.63;2.20;;;2.50;82.20;;;;;;5004488;28;20528;-63
2023/11/25 06:05:04;;;;;;;8.55;2.50;;;2.50;82.20;;;;;;5005264;28;20322;-63
2023/11/25 06:07:30;;;;;;;7.72;2.20;;;2.40;82.10;;;;;;5005214;28;20120;-62
2023/11/25 06:09:56;;;;;;;4.65;1.95;;;2.50;82.40;;;;;;5004340;28;20840;-62
2023/11/25 06:12:21;;;;;;;3.90;1.40;;;2.50;82.30;;;;;;5004946;28;20030;-63
2023/11/25 06:14:49;;;;;;;5.13;1.65;;;2.50;82.30;;;;;;4991201;28;20038;-63
2023/11/25 06:17:14;;;;;;;5.40;2.08;;;2.50;82.40;;;;;;5002313;28;20030;-62
2023/11/25 06:19:43;;;;;;;5.25;1.95;;;2.50;82.60;;;;;;5009155;28;20037;-62
2023/11/25 06:22:09;;;;;;;3.40;1.60;;;2.50;82.60;;;;;;5008683;28;20122;-62
2023/11/25 06:24:35;;;;;;;4.20;1.60;;;2.50;82.50;;;;;;5008286;28;20477;-62
2023/11/25 06:27:00;;;;;;;3.53;1.58;;;2.50;82.30;;;;;;5008841;28;20064;-62
2023/11/25 06:29:26;;;;;;;3.70;1.30;;;2.50;82.50;;;;;;5008771;28;20029;-62
2023/11/25 06:31:51;;;;;;;3.05;1.45;;;2.40;82.50;;;;;;5009029;28;20052;-63
2023/11/25 06:34:18;;;;;;;2.90;1.38;;;2.40;82.30;;;;;;5009105;28;20030;-61
2023/11/25 06:36:44;;;;;;;3.80;1.60;;;2.40;82.00;;;;;;5008383;28;20553;-61
2023/11/25 06:39:14;;;;;;;5.10;1.10;;;2.40;82.00;;;;;;5007191;28;20051;-62
2023/11/25 06:41:43;;;;;;;2.97;1.33;;;2.40;81.60;;;;;;5007795;28;20077;-62
2023/11/25 06:44:09;;;;;;;5.97;2.38;;;2.40;81.00;;;;;;5007894;28;20030;-62
2023/11/25 06:46:34;;;;;;;2.20;1.17;;;2.40;81.10;;;;;;5007465;28;20623;-62
2023/11/25 06:49:00;;;;;;;3.47;1.20;;;2.40;80.80;;;;;;5007874;28;20042;-61
2023/11/25 06:51:25;;;;;;;4.10;1.20;;;2.40;81.10;;;;;;5008120;28;20034;-62
2023/11/25 06:53:51;;;;;;;6.90;2.47;;;2.40;81.30;;;;;;5008417;28;20042;-61
2023/11/25 06:56:16;;;;;;;2.15;1.45;;;2.30;81.40;;;;;;5007758;28;20045;-62
2023/11/25 06:58:42;;;;;;;6.60;1.63;;;2.40;81.60;;;;;;5007356;28;20030;-61
2023/11/25 07:01:08;;;;;;;5.00;1.23;;;2.40;81.80;;;;;;5007946;28;20038;-62
2023/11/25 07:03:33;;;;;;;4.80;1.15;;;2.40;81.70;;;;;;5008072;28;20030;-62
2023/11/25 07:05:59;;;;;;;4.15;1.05;;;2.30;81.60;;;;;;5007940;28;20046;-62
2023/11/25 07:08:25;;;;;;;2.70;1.05;;;2.30;81.60;;;;;;5007641;28;20037;-62
2023/11/25 07:10:53;;;;;;;4.82;1.42;;;2.30;81.50;;;;;;5004065;28;20049;-62
2023/11/25 07:13:22;;;;;;;6.32;1.00;;;2.30;81.50;;;;;;5008175;28;20417;-62
2023/11/25 07:15:48;;;;;;;6.88;1.60;;;2.30;81.30;;;;;;5008005;28;20042;-61
2023/11/25 07:18:14;;;;;;;6.65;1.08;;;2.30;81.60;;;;;;5007795;28;20494;-62
2023/11/25 07:20:39;;;;;;;4.10;1.45;;;2.30;81.70;;;;;;5007872;28;20513;-63
2023/11/25 07:23:05;;;;;;;4.05;1.50;;;2.30;81.70;;;;;;5006750;28;20041;-62
2023/11/25 07:25:32;;;;;;;3.70;1.52;;;2.30;81.80;;;;;;5008308;28;20028;-62
2023/11/25 07:27:57;;;;;;;4.22;2.00;;;2.30;81.80;;;;;;5007460;28;20676;-62
2023/11/25 07:30:23;;;;;;;3.88;1.75;;;2.30;81.80;;;;;;5007363;28;20040;-62
2023/11/25 07:32:49;;;;;;;5.90;2.30;;;2.40;82.10;;;;;;5007367;28;20040;-62
2023/11/25 07:35:14;;;;;;;10.57;6.50;;;2.40;82.00;;;;;;5007298;28;20235;-61
2023/11/25 07:37:40;;;;;;;8.60;3.35;;;2.40;82.00;;;;;;5007467;28;20037;-62
2023/11/25 07:40:12;;;;;;;7.35;1.55;;;2.40;81.70;;;;;;5006761;28;20045;-62
2023/11/25 07:42:38;;;;;;;4.00;1.48;;;2.40;81.40;;;;;;5006916;28;20294;-62
2023/11/25 07:45:09;;;;;;;6.68;2.50;;;2.30;81.30;;;;;;5007676;28;20184;-60
2023/11/25 07:47:35;;;;;;;8.48;1.63;;;2.30;81.40;;;;;;5006134;28;20038;-62
2023/11/25 07:50:01;;;;;;;2.45;1.00;;;2.30;81.50;;;;;;5006753;28;20514;-62
2023/11/25 07:52:27;;;;;;;4.22;1.02;;;2.30;81.30;;;;;;5006978;28;20034;-62
2023/11/25 07:54:53;;;;;;;4.60;1.20;;;2.30;81.10;;;;;;5007268;28;20054;-62
2023/11/25 07:57:19;;;;;;;9.52;2.63;;;2.20;81.10;;;;;;5007318;28;20101;-62
2023/11/25 07:59:44;;;;;;;4.05;1.50;;;2.20;81.40;;;;;;5007086;28;20534;-62
2023/11/25 08:02:10;;;;;;;6.97;1.92;;;2.20;81.60;;;;;;5005528;28;20030;-62
2023/11/25 08:04:36;;;;;;;5.43;2.25;;;2.20;81.90;;;;;;5008089;28;20091;-62
2023/11/25 08:07:02;;;;;;;6.78;2.60;;;2.10;81.70;;;;;;5007905;28;20041;-62
2023/11/25 08:09:28;;;;;;;7.75;3.40;;;2.10;81.80;;;;;;5008290;28;20030;-62
2023/11/25 08:11:53;;;;;;;10.70;4.05;;;2.10;82.10;;;;;;5003719;28;20125;-62
2023/11/25 08:14:19;;;;;;;8.18;4.78;;;2.10;82.40;;;;;;5008575;28;20037;-62
2023/11/25 08:16:47;;;;;;;9.02;2.67;;;2.10;82.60;;;;;;5007889;28;20044;-62
2023/11/25 08:19:14;;;;;;;5.03;2.20;;;2.10;82.60;;;;;;5007413;28;20109;-62
2023/11/25 08:21:40;;;;;;;8.35;2.58;;;2.10;82.50;;;;;;5007673;28;20414;-62
2023/11/25 08:24:06;;;;;;;10.68;2.53;;;2.10;82.60;;;;;;5008103;28;20042;-62
2023/11/25 08:26:31;;;;;;;6.25;2.25;;;2.20;82.80;;;;;;5007828;28;20088;-62
2023/11/25 08:28:58;;;;;;;9.02;2.08;;;2.20;82.80;;;;;;5008003;28;20048;-62
2023/11/25 08:31:24;;;;;;;9.10;2.38;;;2.20;82.80;;;;;;5008110;28;20564;-61
2023/11/25 08:33:49;;;;;;;7.75;2.67;;;2.20;83.00;;;;;;5008132;28;20034;-60
2023/11/25 08:36:17;;;;;;;5.72;1.88;;;2.20;83.00;;;;;;5007847;28;20029;-61
2023/11/25 08:38:43;;;;;;;7.32;2.08;;;2.30;83.00;;;;;;5007081;28;20038;-60
2023/11/25 08:41:09;;;;;;;5.47;2.00;;;2.30;83.20;;;;;;5007557;28;20044;-62
2023/11/25 08:43:39;;;;;;;3.58;1.70;;;2.40;83.20;;;;;;5008160;28;20041;-62
2023/11/25 08:46:04;;;;;;;4.60;1.50;;;2.40;83.20;;;;;;5007307;28;20038;-61
2023/11/25 08:48:30;;;;;;;4.50;1.40;;;2.50;83.20;;;;;;5006487;28;20037;-61
2023/11/25 08:50:56;;;;;;;5.05;1.90;;;2.50;83.20;;;;;;5007129;28;20052;-61
2023/11/25 08:53:23;;;;;;;4.38;1.65;;;2.60;83.30;;;;;;5007948;28;20029;-61
2023/11/25 08:55:48;;;;;;;6.05;1.90;;;2.70;83.20;;;;;;5007563;28;20034;-62
2023/11/25 08:58:14;;;;;;;3.95;2.25;;;2.60;83.00;;;;;;5007395;28;20489;-61
2023/11/25 09:00:40;;;;;;;4.63;1.63;;;2.70;83.20;;;;;;5006253;28;20587;-62
2023/11/25 09:03:07;;;;;;;2.80;1.20;;;2.80;82.90;;;;;;5007111;28;20492;-61
2023/11/25 09:05:36;;;;;;;5.72;1.42;;;2.80;82.70;;;;;;5006771;28;20489;-62
2023/11/25 09:08:06;;;;;;;6.95;1.38;;;2.90;82.80;;;;;;5006792;28;20042;-62
2023/11/25 09:10:34;;;;;;;3.40;1.40;;;2.90;82.30;;;;;;5003145;28;20035;-62
2023/11/25 09:12:59;;;;;;;2.92;1.42;;;2.90;82.30;;;;;;5006556;28;20038;-62
2023/11/25 09:15:25;;;;;;;6.07;2.63;;;2.90;82.50;;;;;;5007536;28;20037;-62
2023/11/25 09:17:51;;;;;;;7.20;2.92;;;3.00;82.50;;;;;;5007033;28;20034;-62
2023/11/25 09:20:17;;;;;;;5.47;2.55;;;3.00;82.30;;;;;;5007046;28;20034;-62
2023/11/25 09:22:43;;;;;;;6.43;2.22;;;3.10;82.40;;;;;;5006969;28;20089;-62
2023/11/25 09:25:12;;;;;;;4.15;1.90;;;3.10;82.10;;;;;;5007203;28;20579;-61
2023/11/25 09:27:39;;;;;;;9.15;1.58;;;3.10;81.70;;;;;;5007087;28;20454;-62
2023/11/25 09:30:05;;;;;;;4.80;1.45;;;3.20;81.90;;;;;;5007321;28;20452;-61
2023/11/25 09:32:31;;;;;;;6.85;1.50;;;3.10;81.70;;;;;;5006522;28;20121;-62
2023/11/25 09:34:57;;;;;;;4.45;1.30;;;3.20;82.00;;;;;;5006893;28;20544;-61
2023/11/25 09:37:23;;;;;;;3.20;1.10;;;3.20;82.00;;;;;;5007233;28;20026;-61
2023/11/25 09:39:48;;;;;;;9.10;1.67;;;3.20;82.10;;;;;;5007439;28;20161;-61
2023/11/25 09:42:14;;;;;;;5.10;1.90;;;3.30;81.70;;;;;;5007133;28;20453;-61
2023/11/25 09:44:40;;;;;;;6.70;1.92;;;3.30;81.80;;;;;;5006472;28;20145;-62
2023/11/25 09:47:06;;;;;;;6.18;1.75;;;3.40;82.00;;;;;;5009258;28;20521;-61
2023/11/25 09:49:32;;;;;;;4.88;1.48;;;3.40;81.40;;;;;;5010765;28;20038;-60
2023/11/25 09:52:05;;;;;;;4.80;1.60;;;3.40;81.40;;;;;;5010746;28;20294;-61
2023/11/25 09:54:31;;;;;;;6.75;2.17;;;3.50;81.20;;;;;;5010070;28;20038;-60
2023/11/25 09:57:00;;;;;;;4.63;1.80;;;3.50;81.40;;;;;;5011157;28;20034;-62
2023/11/25 09:59:28;;;;;;;7.68;2.00;;;3.60;81.60;;;;;;5009945;28;20156;-61
2023/11/25 10:01:53;;;;;;;9.00;2.20;;;3.60;81.40;;;;;;5010551;28;20421;-62
2023/11/25 10:04:21;;;;;;;9.88;1.95;;;3.60;81.40;;;;;;5011090;28;20046;-60
2023/11/25 10:06:53;;;;;;;7.93;1.90;;;3.60;81.40;;;;;;5010424;28;20034;-61
2023/11/25 10:09:21;;;;;;;5.95;2.13;;;3.70;81.30;;;;;;5010320;28;20033;-62
2023/11/25 10:11:47;;;;;;;6.53;2.50;;;3.70;81.30;;;;;;5006201;28;20040;-62
2023/11/25 10:14:13;;;;;;;6.80;2.40;;;3.70;81.40;;;;;;5010670;28;20042;-61
2023/11/25 10:16:44;;;;;;;8.18;2.35;;;3.70;81.10;;;;;;5010351;28;20196;-62
2023/11/25 10:19:20;;;;;;;11.65;3.20;;;3.80;81.40;;;;;;5010195;28;20517;-62
2023/11/25 10:21:47;;;;;;;8.25;2.28;;;3.80;81.20;;;;;;5010846;28;20034;-61
2023/11/25 10:24:14;;;;;;;7.40;2.10;;;3.80;81.40;;;;;;5009946;28;20502;-62
2023/11/25 10:26:40;;;;;;;6.28;1.70;;;3.90;81.40;;;;;;5009941;28;20041;-60
2023/11/25 10:29:06;;;;;;;6.63;2.10;;;3.90;81.20;;;;;;5010296;28;20045;-62
2023/11/25 10:31:33;;;;;;;6.38;1.70;;;3.80;81.30;;;;;;5010134;28;20042;-62
2023/11/25 10:34:00;;;;;;;5.45;1.55;;;3.90;81.10;;;;;;5009846;28;20030;-62
2023/11/25 10:36:25;;;;;;;5.03;1.60;;;3.90;81.10;;;;;;5010203;28;20490;-63
2023/11/25 10:38:53;;;;;;;5.75;1.52;;;3.90;80.90;;;;;;5009925;28;20176;-61
2023/11/25 10:41:19;;;;;;;4.07;1.60;;;4.00;81.00;;;;;;5010205;28;20494;-62
2023/11/25 10:43:44;;;;;;;4.75;1.92;;;3.90;81.40;;;;;;5009687;28;20044;-62
2023/11/25 10:46:10;;;;;;;3.22;1.50;;;3.90;81.40;;;;;;5010339;28;20229;-62
2023/11/25 10:48:38;;;;;;;6.55;1.80;;;3.90;81.80;;;;;;5009409;28;20038;-63
2023/11/25 10:51:10;;;;;;;6.07;2.00;;;4.00;82.10;;;;;;5009833;28;20048;-62
2023/11/25 10:53:37;;;;;;;5.22;1.60;;;4.00;82.20;;;;;;5009428;28;20501;-60
2023/11/25 10:56:03;;;;;;;3.10;1.30;;;4.10;82.20;;;;;;5009607;28;20037;-63
2023/11/25 10:58:31;;;;;;;10.73;1.40;;;4.20;82.10;;;;;;5008029;28;20038;-62
2023/11/25 11:00:59;;;;;;;3.40;1.33;;;4.20;82.00;;;;;;5008654;28;20041;-63
2023/11/25 11:03:33;;;;;;;2.47;1.13;;;4.20;81.70;;;;;;5008742;28;20038;-63
2023/11/25 11:06:01;;;;;;;6.43;1.70;;;4.20;81.40;;;;;;5008928;28;20038;-63
2023/11/25 11:08:32;;;;;;;7.78;1.40;;;4.20;81.40;;;;;;5007608;28;20040;-63
2023/11/25 11:11:08;;;;;;;6.00;1.52;;;4.30;81.30;;;;;;5007973;28;20504;-63
2023/11/25 11:13:41;;;;;;;6.78;1.95;;;4.30;81.30;;;;;;5008924;28;20049;-63
2023/11/25 11:16:15;;;;;;;7.20;1.77;;;4.20;81.30;;;;;;5008322;28;20048;-63
2023/11/25 11:18:43;;;;;;;3.97;1.58;;;4.20;81.40;;;;;;5006741;28;20034;-63
2023/11/25 11:21:09;;;;;;;5.45;1.58;;;4.20;81.40;;;;;;5008832;28;20062;-64
2023/11/25 11:23:37;;;;;;;3.80;1.60;;;4.20;81.50;;;;;;5008723;28;20038;-63
2023/11/25 11:26:15;;;;;;;2.38;1.20;;;4.30;81.60;;;;;;5008531;28;20038;-64
2023/11/25 11:28:43;;;;;;;3.55;1.40;;;4.30;81.60;;;;;;5007730;28;20022;-64
2023/11/25 11:31:46;;;;;;;4.20;1.30;;;4.30;81.80;;;;;;5006900;28;20123;-64
2023/11/25 11:34:12;;;;;;;6.55;1.48;;;4.30;82.10;;;;;;5007962;28;20118;-64
2023/11/25 11:36:39;;;;;;;4.13;1.80;;;4.30;82.10;;;;;;5007601;28;20480;-64
2023/11/25 11:39:05;;;;;;;6.97;1.55;;;4.30;82.00;;;;;;5007674;28;20041;-64
2023/11/25 11:41:31;;;;;;;5.90;1.58;;;4.30;82.10;;;;;;5008421;28;20448;-64
2023/11/25 11:44:03;;;;;;;5.00;1.42;;;4.40;82.10;;;;;;5007337;28;20103;-64
2023/11/25 11:46:30;;;;;;;6.18;1.85;;;4.40;82.20;;;;;;5007685;28;20038;-64
2023/11/25 11:48:56;;;;;;;4.05;1.30;;;4.40;82.20;;;;;;5007638;28;20398;-64
2023/11/25 11:51:23;;;;;;;4.50;1.15;;;4.40;82.30;;;;;;5008219;28;20421;-64
2023/11/25 11:54:20;;;;;;;5.32;1.73;;;4.50;82.20;;;;;;5007886;28;20037;-63
2023/11/25 11:57:05;;;;;;;4.80;1.42;;;4.50;82.10;;;;;;5007845;28;20303;-64
2023/11/25 12:00:11;;;;;;;4.72;1.77;;;4.60;82.30;;;;;;5007078;28;20026;-64
2023/11/25 12:02:40;;;;;;;6.53;1.50;;;4.60;82.00;;;;;;5007326;28;20371;-64
2023/11/25 12:05:06;;;;;;;6.70;1.77;;;4.60;82.30;;;;;;5007714;28;20061;-64
2023/11/25 12:07:32;;;;;;;5.30;1.40;;;4.70;82.40;;;;;;5007383;28;20056;-64
2023/11/25 12:09:58;;;;;;;5.07;1.73;;;4.70;82.20;;;;;;5006676;28;20034;-64
2023/11/25 12:12:24;;;;;;;7.05;1.92;;;4.70;82.10;;;;;;5005115;28;20041;-64
2023/11/25 12:14:50;;;;;;;5.13;2.75;;;4.80;82.10;;;;;;5007587;28;20509;-64
2023/11/25 12:17:16;;;;;;;7.72;2.22;;;4.80;82.10;;;;;;5007549;28;20046;-64
2023/11/25 12:19:42;;;;;;;5.07;1.92;;;4.80;81.70;;;;;;5007792;28;20049;-64
2023/11/25 12:22:11;;;;;;;5.47;2.20;;;4.80;81.60;;;;;;5007032;28;20036;-64
2023/11/25 12:24:43;;;;;;;5.85;1.90;;;4.80;81.50;;;;;;5006563;28;20084;-64
2023/11/25 12:27:14;;;;;;;7.50;1.58;;;4.80;81.50;;;;;;5007459;28;20060;-64
2023/11/25 12:29:40;;;;;;;6.40;1.85;;;4.80;81.30;;;;;;5007072;28;20037;-64
2023/11/25 12:32:06;;;;;;;3.90;1.70;;;4.80;81.40;;;;;;5006827;28;20049;-64
2023/11/25 12:34:32;;;;;;;5.45;2.00;;;4.80;81.30;;;;;;5006326;28;20536;-64
2023/11/25 12:36:58;;;;;;;5.75;1.75;;;4.70;81.00;;;;;;5007538;28;20084;-64
2023/11/25 12:39:25;;;;;;;5.15;1.80;;;4.70;80.90;;;;;;5007039;28;20145;-64
2023/11/25 12:41:51;;;;;;;6.28;1.83;;;4.70;81.10;;;;;;5007571;28;20074;-64
2023/11/25 12:44:19;;;;;;;3.63;1.88;;;4.70;81.10;;;;;;5006388;28;20423;-64
2023/11/25 12:47:00;;;;;;;4.38;1.88;;;4.70;81.10;;;;;;5004206;28;20553;-64
2023/11/25 12:49:26;;;;;;;5.20;2.00;;;4.70;80.90;;;;;;5005617;28;20026;-64
2023/11/25 12:51:52;;;;;;;5.55;2.03;;;4.60;81.10;;;;;;5006949;28;20483;-64
2023/11/25 12:54:19;;;;;;;5.63;1.90;;;4.60;81.20;;;;;;5006484;28;20045;-64
2023/11/25 12:56:52;;;;;;;7.50;1.77;;;4.60;81.20;;;;;;5006004;28;20374;-64